LZIB/BTS METAR and TAF weather

Enter ICAO airport designator
Station Type Date Time Source
LZIB METAR 2022/06/26 09:00 UTC NOAA

LZIB 260900Z 14003KT 070V220 9999 SCT036 25/16 Q1016 NOSIG


Station Type Date Time Source
LZIB Decoded METAR 2022/06/26 09:00 UTC NOAA

Bratislava Ivanka, Slovakia (LZIB) 48-12N 017-12E 142M
Jun 26, 2022 - 05:00 AM EDT / 2022.06.26 0900 UTC
Wind: from the SE (140 degrees) at 3 MPH (3 KT) (direction variable):0
Visibility: greater than 7 mile(s):0
Sky conditions: partly cloudy
Temperature: 77 F (25 C)
Dew Point: 60 F (16 C)
Relative Humidity: 57%
Pressure (altimeter): 30.00 in. Hg (1016 hPa)
ob: LZIB 260900Z 14003KT 070V220 9999 SCT036 25/16 Q1016 NOSIG
cycle: 9

Station Type Date Time Source
LZIB TAF 2022/06/26 06:12 UTC NOAA

TAF TAF LZIB 260515Z 2606/2706 VRB02KT CAVOK
TEMPO 2608/2618 12007KT
BECMG 2704/2706 08006KT

Example: see airport list